sensor_id;sensor_type;location;lat;lon;timestamp;pressure;altitude;pressure_sealevel;temperature;humidity
28921;BME280;16035;53.594;9.952;2022-07-06T00:00:58;102111.69;;;16.76;57.92
28921;BME280;16035;53.594;9.952;2022-07-06T00:02:59;102111.72;;;16.81;57.98
28921;BME280;16035;53.594;9.952;2022-07-06T00:04:59;102115.28;;;16.86;58.14
28921;BME280;16035;53.594;9.952;2022-07-06T00:07:00;102113.94;;;16.89;57.88
28921;BME280;16035;53.594;9.952;2022-07-06T00:09:00;102113.38;;;16.92;57.77
28921;BME280;16035;53.594;9.952;2022-07-06T00:11:01;102108.97;;;16.91;57.77
28921;BME280;16035;53.594;9.952;2022-07-06T00:13:01;102120.25;;;16.89;57.67
28921;BME280;16035;53.594;9.952;2022-07-06T00:15:02;102115.03;;;16.88;57.86
28921;BME280;16035;53.594;9.952;2022-07-06T00:17:03;102115.84;;;16.88;57.83
28921;BME280;16035;53.594;9.952;2022-07-06T00:19:03;102115.56;;;16.85;57.67
28921;BME280;16035;53.594;9.952;2022-07-06T00:21:04;102123.50;;;16.76;57.72
28921;BME280;16035;53.594;9.952;2022-07-06T00:23:04;102116.88;;;16.72;57.77
28921;BME280;16035;53.594;9.952;2022-07-06T00:25:05;102122.63;;;16.65;57.77
28921;BME280;16035;53.594;9.952;2022-07-06T00:27:05;102119.00;;;16.65;58.21
28921;BME280;16035;53.594;9.952;2022-07-06T00:29:06;102122.63;;;16.71;58.36
28921;BME280;16035;53.594;9.952;2022-07-06T00:31:06;102119.41;;;16.79;58.42
28921;BME280;16035;53.594;9.952;2022-07-06T00:33:07;102119.13;;;16.80;58.09
28921;BME280;16035;53.594;9.952;2022-07-06T00:35:07;102125.13;;;16.72;58.34
28921;BME280;16035;53.594;9.952;2022-07-06T00:37:08;102113.03;;;16.73;58.24
28921;BME280;16035;53.594;9.952;2022-07-06T00:39:08;102114.97;;;16.73;58.44
28921;BME280;16035;53.594;9.952;2022-07-06T00:41:08;102118.78;;;16.66;58.17
28921;BME280;16035;53.594;9.952;2022-07-06T00:43:09;102112.19;;;16.67;58.51
28921;BME280;16035;53.594;9.952;2022-07-06T00:45:10;102114.91;;;16.62;58.04
28921;BME280;16035;53.594;9.952;2022-07-06T00:47:11;102112.16;;;16.57;58.54
28921;BME280;16035;53.594;9.952;2022-07-06T00:49:11;102111.59;;;16.60;58.76
28921;BME280;16035;53.594;9.952;2022-07-06T00:51:32;102113.78;;;16.58;58.36
28921;BME280;16035;53.594;9.952;2022-07-06T00:53:36;102117.34;;;16.54;58.48
28921;BME280;16035;53.594;9.952;2022-07-06T00:55:38;102118.44;;;16.58;58.58
28921;BME280;16035;53.594;9.952;2022-07-06T00:57:42;102116.00;;;16.61;58.76
28921;BME280;16035;53.594;9.952;2022-07-06T00:59:42;102116.03;;;16.66;58.77
28921;BME280;16035;53.594;9.952;2022-07-06T01:01:43;102119.31;;;16.68;58.48
28921;BME280;16035;53.594;9.952;2022-07-06T01:03:43;102122.34;;;16.67;58.15
28921;BME280;16035;53.594;9.952;2022-07-06T01:05:44;102124.25;;;16.61;58.30
28921;BME280;16035;53.594;9.952;2022-07-06T01:07:46;102130.25;;;16.58;58.26
28921;BME280;16035;53.594;9.952;2022-07-06T01:09:46;102132.41;;;16.56;58.50
28921;BME280;16035;53.594;9.952;2022-07-06T01:11:47;102114.59;;;16.54;58.54
28921;BME280;16035;53.594;9.952;2022-07-06T01:13:48;102123.94;;;16.53;58.62
28921;BME280;16035;53.594;9.952;2022-07-06T01:15:49;102114.81;;;16.47;58.62
28921;BME280;16035;53.594;9.952;2022-07-06T01:17:50;102112.34;;;16.40;58.79
28921;BME280;16035;53.594;9.952;2022-07-06T01:19:50;102118.38;;;16.42;59.18
28921;BME280;16035;53.594;9.952;2022-07-06T01:21:51;102113.44;;;16.45;58.95
28921;BME280;16035;53.594;9.952;2022-07-06T01:23:51;102117.84;;;16.46;58.86
28921;BME280;16035;53.594;9.952;2022-07-06T01:25:55;102117.56;;;16.47;59.06
28921;BME280;16035;53.594;9.952;2022-07-06T01:27:55;102118.69;;;16.51;59.11
28921;BME280;16035;53.594;9.952;2022-07-06T01:29:55;102115.69;;;16.53;59.06
28921;BME280;16035;53.594;9.952;2022-07-06T01:31:56;102113.50;;;16.55;59.05
28921;BME280;16035;53.594;9.952;2022-07-06T01:33:56;102106.34;;;16.54;58.91
28921;BME280;16035;53.594;9.952;2022-07-06T01:35:57;102121.97;;;16.48;58.88
28921;BME280;16035;53.594;9.952;2022-07-06T01:37:58;102110.44;;;16.46;59.07
28921;BME280;16035;53.594;9.952;2022-07-06T01:40:02;102111.00;;;16.48;59.16
28921;BME280;16035;53.594;9.952;2022-07-06T01:42:04;102111.84;;;16.49;59.75
28921;BME280;16035;53.594;9.952;2022-07-06T01:44:05;102112.13;;;16.52;59.31
28921;BME280;16035;53.594;9.952;2022-07-06T01:46:06;102108.00;;;16.55;59.35
28921;BME280;16035;53.594;9.952;2022-07-06T01:48:07;102100.34;;;16.57;59.28
28921;BME280;16035;53.594;9.952;2022-07-06T01:50:08;102101.97;;;16.53;59.01
28921;BME280;16035;53.594;9.952;2022-07-06T01:52:08;102093.75;;;16.53;59.17
28921;BME280;16035;53.594;9.952;2022-07-06T01:54:09;102095.63;;;16.47;59.25
28921;BME280;16035;53.594;9.952;2022-07-06T01:56:09;102098.34;;;16.47;59.28
28921;BME280;16035;53.594;9.952;2022-07-06T01:58:10;102099.16;;;16.42;59.24
28921;BME280;16035;53.594;9.952;2022-07-06T02:00:11;102104.63;;;16.37;59.50
28921;BME280;16035;53.594;9.952;2022-07-06T02:02:11;102106.56;;;16.37;59.33
28921;BME280;16035;53.594;9.952;2022-07-06T02:04:14;102103.50;;;16.33;59.43
28921;BME280;16035;53.594;9.952;2022-07-06T02:06:14;102104.09;;;16.35;59.33
28921;BME280;16035;53.594;9.952;2022-07-06T02:08:15;102101.34;;;16.35;59.48
28921;BME280;16035;53.594;9.952;2022-07-06T02:10:15;102106.28;;;16.38;59.63
28921;BME280;16035;53.594;9.952;2022-07-06T02:12:16;102103.81;;;16.42;59.70
28921;BME280;16035;53.594;9.952;2022-07-06T02:14:16;102110.44;;;16.46;59.79
28921;BME280;16035;53.594;9.952;2022-07-06T02:16:16;102111.50;;;16.40;59.30
28921;BME280;16035;53.594;9.952;2022-07-06T02:18:17;102104.31;;;16.34;59.85
28921;BME280;16035;53.594;9.952;2022-07-06T02:20:17;102111.50;;;16.35;59.96
28921;BME280;16035;53.594;9.952;2022-07-06T02:22:17;102109.75;;;16.24;59.69
28921;BME280;16035;53.594;9.952;2022-07-06T02:24:18;102110.84;;;16.17;60.13
28921;BME280;16035;53.594;9.952;2022-07-06T02:26:18;102111.66;;;16.18;60.20
28921;BME280;16035;53.594;9.952;2022-07-06T02:28:18;102115.53;;;16.22;60.01
28921;BME280;16035;53.594;9.952;2022-07-06T02:30:19;102106.78;;;16.25;60.18
28921;BME280;16035;53.594;9.952;2022-07-06T02:32:19;102118.03;;;16.29;60.47
28921;BME280;16035;53.594;9.952;2022-07-06T02:34:20;102119.69;;;16.30;59.80
28921;BME280;16035;53.594;9.952;2022-07-06T02:36:21;102118.28;;;16.22;60.33
28921;BME280;16035;53.594;9.952;2022-07-06T02:38:21;102115.75;;;16.15;60.07
28921;BME280;16035;53.594;9.952;2022-07-06T02:40:22;102120.63;;;16.03;60.27
28921;BME280;16035;53.594;9.952;2022-07-06T02:42:22;102119.22;;;16.01;60.48
28921;BME280;16035;53.594;9.952;2022-07-06T02:44:22;102108.53;;;15.99;61.04
28921;BME280;16035;53.594;9.952;2022-07-06T02:46:23;102109.06;;;15.96;60.66
28921;BME280;16035;53.594;9.952;2022-07-06T02:48:23;102115.59;;;15.90;60.85
28921;BME280;16035;53.594;9.952;2022-07-06T02:50:24;102105.38;;;15.80;61.24
28921;BME280;16035;53.594;9.952;2022-07-06T02:52:24;102099.59;;;15.77;61.53
28921;BME280;16035;53.594;9.952;2022-07-06T02:54:25;102096.06;;;15.81;61.73
28921;BME280;16035;53.594;9.952;2022-07-06T02:56:25;102096.94;;;15.87;61.43
28921;BME280;16035;53.594;9.952;2022-07-06T02:58:25;102090.34;;;15.88;61.71
28921;BME280;16035;53.594;9.952;2022-07-06T03:00:26;102089.31;;;15.94;61.53
28921;BME280;16035;53.594;9.952;2022-07-06T03:02:26;102096.16;;;15.97;61.31
28921;BME280;16035;53.594;9.952;2022-07-06T03:04:27;102096.94;;;15.87;61.33
28921;BME280;16035;53.594;9.952;2022-07-06T03:06:27;102098.81;;;15.81;61.61
28921;BME280;16035;53.594;9.952;2022-07-06T03:08:27;102104.53;;;15.80;61.53
28921;BME280;16035;53.594;9.952;2022-07-06T03:10:28;102099.88;;;15.80;61.90
28921;BME280;16035;53.594;9.952;2022-07-06T03:12:28;102106.25;;;15.86;62.00
28921;BME280;16035;53.594;9.952;2022-07-06T03:14:29;102102.72;;;15.90;62.13
28921;BME280;16035;53.594;9.952;2022-07-06T03:16:29;102102.75;;;15.96;61.82
28921;BME280;16035;53.594;9.952;2022-07-06T03:18:30;102109.88;;;15.97;61.92
28921;BME280;16035;53.594;9.952;2022-07-06T03:20:30;102106.84;;;15.98;62.49
28921;BME280;16035;53.594;9.952;2022-07-06T03:22:31;102108.78;;;15.98;61.85
28921;BME280;16035;53.594;9.952;2022-07-06T03:24:31;102113.44;;;15.97;62.07
28921;BME280;16035;53.594;9.952;2022-07-06T03:26:32;102116.22;;;16.02;62.27
28921;BME280;16035;53.594;9.952;2022-07-06T03:28:32;102112.41;;;16.03;61.88
28921;BME280;16035;53.594;9.952;2022-07-06T03:30:32;102112.66;;;16.02;62.28
28921;BME280;16035;53.594;9.952;2022-07-06T03:32:33;102102.78;;;16.01;62.13
28921;BME280;16035;53.594;9.952;2022-07-06T03:34:33;102112.41;;;16.03;62.41
28921;BME280;16035;53.594;9.952;2022-07-06T03:36:34;102109.09;;;16.01;62.26
28921;BME280;16035;53.594;9.952;2022-07-06T03:38:35;102105.78;;;15.99;62.33
28921;BME280;16035;53.594;9.952;2022-07-06T03:40:36;102111.00;;;16.01;62.30
28921;BME280;16035;53.594;9.952;2022-07-06T03:42:36;102112.41;;;16.03;62.25
28921;BME280;16035;53.594;9.952;2022-07-06T03:44:37;102115.69;;;16.05;62.27
28921;BME280;16035;53.594;9.952;2022-07-06T03:46:37;102109.94;;;16.07;62.24
28921;BME280;16035;53.594;9.952;2022-07-06T03:48:38;102109.13;;;16.06;62.40
28921;BME280;16035;53.594;9.952;2022-07-06T03:50:38;102114.34;;;16.08;62.16
28921;BME280;16035;53.594;9.952;2022-07-06T03:52:38;102111.03;;;16.06;62.16
28921;BME280;16035;53.594;9.952;2022-07-06T03:54:39;102113.53;;;16.07;62.12
28921;BME280;16035;53.594;9.952;2022-07-06T03:56:40;102129.19;;;16.12;62.19
28921;BME280;16035;53.594;9.952;2022-07-06T03:58:40;102128.31;;;16.06;62.10
28921;BME280;16035;53.594;9.952;2022-07-06T04:00:41;102125.56;;;16.06;62.06
28921;BME280;16035;53.594;9.952;2022-07-06T04:02:41;102127.16;;;15.97;62.05
28921;BME280;16035;53.594;9.952;2022-07-06T04:04:42;102123.25;;;15.88;62.18
28921;BME280;16035;53.594;9.952;2022-07-06T04:06:42;102125.41;;;15.81;62.60
28921;BME280;16035;53.594;9.952;2022-07-06T04:08:42;102126.13;;;15.71;62.37
28921;BME280;16035;53.594;9.952;2022-07-06T04:10:43;102123.63;;;15.64;62.31
28921;BME280;16035;53.594;9.952;2022-07-06T04:12:44;102122.28;;;15.67;62.73
28921;BME280;16035;53.594;9.952;2022-07-06T04:14:45;102122.06;;;15.74;62.91
28921;BME280;16035;53.594;9.952;2022-07-06T04:16:45;102119.06;;;15.80;62.91
28921;BME280;16035;53.594;9.952;2022-07-06T04:18:45;102119.38;;;15.84;62.87
28921;BME280;16035;53.594;9.952;2022-07-06T04:20:46;102119.69;;;15.87;62.78
28921;BME280;16035;53.594;9.952;2022-07-06T04:22:47;102110.13;;;15.90;62.87
28921;BME280;16035;53.594;9.952;2022-07-06T04:24:47;102114.50;;;15.91;62.62
28921;BME280;16035;53.594;9.952;2022-07-06T04:26:48;102118.34;;;15.90;62.55
28921;BME280;16035;53.594;9.952;2022-07-06T04:28:48;102113.69;;;15.90;62.50
28921;BME280;16035;53.594;9.952;2022-07-06T04:30:48;102112.31;;;15.93;62.61
28921;BME280;16035;53.594;9.952;2022-07-06T04:32:49;102107.31;;;15.85;62.35
28921;BME280;16035;53.594;9.952;2022-07-06T04:34:49;102104.00;;;15.78;62.95
28921;BME280;16035;53.594;9.952;2022-07-06T04:36:49;102110.03;;;15.80;63.13
28921;BME280;16035;53.594;9.952;2022-07-06T04:38:50;102106.75;;;15.83;62.80
28921;BME280;16035;53.594;9.952;2022-07-06T04:40:50;102108.19;;;15.90;62.94
28921;BME280;16035;53.594;9.952;2022-07-06T04:42:50;102109.06;;;15.96;62.91
28921;BME280;16035;53.594;9.952;2022-07-06T04:44:51;102104.66;;;15.95;62.63
28921;BME280;16035;53.594;9.952;2022-07-06T04:46:54;102106.03;;;15.98;62.74
28921;BME280;16035;53.594;9.952;2022-07-06T04:48:54;102105.50;;;15.96;62.52
28921;BME280;16035;53.594;9.952;2022-07-06T04:50:54;102104.97;;;15.99;62.96
28921;BME280;16035;53.594;9.952;2022-07-06T04:52:55;102117.88;;;16.03;62.73
28921;BME280;16035;53.594;9.952;2022-07-06T04:54:55;102114.06;;;16.09;62.84
28921;BME280;16035;53.594;9.952;2022-07-06T04:56:56;102112.47;;;16.13;62.75
28921;BME280;16035;53.594;9.952;2022-07-06T04:58:56;102116.56;;;16.16;62.81
28921;BME280;16035;53.594;9.952;2022-07-06T05:00:57;102107.78;;;16.14;62.08
28921;BME280;16035;53.594;9.952;2022-07-06T05:02:57;102101.50;;;16.13;62.54
28921;BME280;16035;53.594;9.952;2022-07-06T05:04:57;102106.41;;;16.11;62.35
28921;BME280;16035;53.594;9.952;2022-07-06T05:06:58;102112.97;;;16.10;62.61
28921;BME280;16035;53.594;9.952;2022-07-06T05:08:58;102111.34;;;16.09;62.45
28921;BME280;16035;53.594;9.952;2022-07-06T05:11:01;102112.97;;;16.10;62.53
28921;BME280;16035;53.594;9.952;2022-07-06T05:13:02;102116.53;;;16.11;62.34
28921;BME280;16035;53.594;9.952;2022-07-06T05:15:03;102119.59;;;16.14;62.56
28921;BME280;16035;53.594;9.952;2022-07-06T05:17:03;102120.19;;;16.22;62.67
28921;BME280;16035;53.594;9.952;2022-07-06T05:19:04;102115.56;;;16.27;62.57
28921;BME280;16035;53.594;9.952;2022-07-06T05:21:04;102113.34;;;16.29;62.09
28921;BME280;16035;53.594;9.952;2022-07-06T05:23:05;102117.75;;;16.25;62.04
28921;BME280;16035;53.594;9.952;2022-07-06T05:25:05;102121.31;;;16.26;62.44
28921;BME280;16035;53.594;9.952;2022-07-06T05:27:06;102116.94;;;16.30;62.01
28921;BME280;16035;53.594;9.952;2022-07-06T05:29:06;102116.94;;;16.30;61.92
28921;BME280;16035;53.594;9.952;2022-07-06T05:31:06;102114.22;;;16.30;62.06
28921;BME280;16035;53.594;9.952;2022-07-06T05:33:07;102120.75;;;16.29;62.13
28921;BME280;16035;53.594;9.952;2022-07-06T05:35:07;102114.22;;;16.30;61.93
28921;BME280;16035;53.594;9.952;2022-07-06T05:37:08;102116.41;;;16.33;62.67
28921;BME280;16035;53.594;9.952;2022-07-06T05:39:08;102115.06;;;16.40;62.66
28921;BME280;16035;53.594;9.952;2022-07-06T05:41:09;102117.63;;;16.52;62.33
28921;BME280;16035;53.594;9.952;2022-07-06T05:43:09;102119.50;;;16.52;61.87
28921;BME280;16035;53.594;9.952;2022-07-06T05:45:10;102119.25;;;16.53;62.48
28921;BME280;16035;53.594;9.952;2022-07-06T05:47:10;102126.16;;;16.61;62.28
28921;BME280;16035;53.594;9.952;2022-07-06T05:49:29;102126.69;;;16.58;62.12
28921;BME280;16035;53.594;9.952;2022-07-06T05:51:48;102137.91;;;16.56;61.98
28921;BME280;16035;53.594;9.952;2022-07-06T05:53:49;102132.16;;;16.53;61.73
28921;BME280;16035;53.594;9.952;2022-07-06T05:55:50;102130.75;;;16.45;61.77
28921;BME280;16035;53.594;9.952;2022-07-06T05:57:50;102138.69;;;16.47;62.24
28921;BME280;16035;53.594;9.952;2022-07-06T05:59:50;102146.09;;;16.46;61.78
28921;BME280;16035;53.594;9.952;2022-07-06T06:01:51;102137.25;;;16.34;61.57
28921;BME280;16035;53.594;9.952;2022-07-06T06:03:51;102138.28;;;16.23;61.75
28921;BME280;16035;53.594;9.952;2022-07-06T06:05:51;102138.50;;;16.16;62.03
28921;BME280;16035;53.594;9.952;2022-07-06T06:07:52;102151.38;;;16.10;61.81
28921;BME280;16035;53.594;9.952;2022-07-06T06:09:52;102149.19;;;16.07;62.41
28921;BME280;16035;53.594;9.952;2022-07-06T06:11:52;102146.47;;;16.12;62.29
28921;BME280;16035;53.594;9.952;2022-07-06T06:13:53;102148.63;;;16.10;62.26
28921;BME280;16035;53.594;9.952;2022-07-06T06:15:53;102148.91;;;16.09;62.51
28921;BME280;16035;53.594;9.952;2022-07-06T06:17:53;102142.56;;;16.03;62.54
28921;BME280;16035;53.594;9.952;2022-07-06T06:19:54;102142.28;;;16.05;62.63
28921;BME280;16035;53.594;9.952;2022-07-06T06:21:54;102148.59;;;16.05;62.66
28921;BME280;16035;53.594;9.952;2022-07-06T06:23:55;102145.34;;;16.08;62.85
28921;BME280;16035;53.594;9.952;2022-07-06T06:25:55;102139.09;;;16.18;63.10
28921;BME280;16035;53.594;9.952;2022-07-06T06:27:55;102144.31;;;16.25;63.08
28921;BME280;16035;53.594;9.952;2022-07-06T06:29:56;102146.56;;;16.28;62.99
28921;BME280;16035;53.594;9.952;2022-07-06T06:31:56;102143.25;;;16.26;63.02
28921;BME280;16035;53.594;9.952;2022-07-06T06:33:56;102152.63;;;16.30;62.71
28921;BME280;16035;53.594;9.952;2022-07-06T06:35:57;102146.84;;;16.31;62.69
28921;BME280;16035;53.594;9.952;2022-07-06T06:37:57;102148.28;;;16.39;62.96
28921;BME280;16035;53.594;9.952;2022-07-06T06:39:57;102143.38;;;16.51;63.34
28921;BME280;16035;53.594;9.952;2022-07-06T06:41:58;102152.50;;;16.62;62.90
28921;BME280;16035;53.594;9.952;2022-07-06T06:43:58;102154.44;;;16.66;62.58
28921;BME280;16035;53.594;9.952;2022-07-06T06:45:59;102156.63;;;16.69;62.32
28921;BME280;16035;53.594;9.952;2022-07-06T06:47:59;102148.97;;;16.66;62.51
28921;BME280;16035;53.594;9.952;2022-07-06T06:49:59;102152.50;;;16.62;62.18
28921;BME280;16035;53.594;9.952;2022-07-06T06:52:00;102160.72;;;16.57;62.48
28921;BME280;16035;53.594;9.952;2022-07-06T06:54:00;102159.28;;;16.49;62.35
28921;BME280;16035;53.594;9.952;2022-07-06T06:56:01;102158.69;;;16.42;62.89
28921;BME280;16035;53.594;9.952;2022-07-06T06:58:01;102161.75;;;16.46;63.13
28921;BME280;16035;53.594;9.952;2022-07-06T07:00:03;102165.88;;;16.48;62.95
28921;BME280;16035;53.594;9.952;2022-07-06T07:02:03;102167.75;;;16.42;62.95
28921;BME280;16035;53.594;9.952;2022-07-06T07:04:04;102172.13;;;16.38;62.71
28921;BME280;16035;53.594;9.952;2022-07-06T07:06:06;102157.31;;;16.34;63.29
28921;BME280;16035;53.594;9.952;2022-07-06T07:08:06;102169.69;;;16.42;63.57
28921;BME280;16035;53.594;9.952;2022-07-06T07:10:07;102163.69;;;16.50;63.40
28921;BME280;16035;53.594;9.952;2022-07-06T07:12:08;102165.34;;;16.56;62.95
28921;BME280;16035;53.594;9.952;2022-07-06T07:14:08;102178.56;;;16.59;63.18
28921;BME280;16035;53.594;9.952;2022-07-06T07:16:08;102176.09;;;16.63;63.23
28921;BME280;16035;53.594;9.952;2022-07-06T07:18:09;102173.91;;;16.65;63.35
28921;BME280;16035;53.594;9.952;2022-07-06T07:20:09;102172.00;;;16.65;62.88
28921;BME280;16035;53.594;9.952;2022-07-06T07:22:10;102173.91;;;16.65;63.10
28921;BME280;16035;53.594;9.952;2022-07-06T07:24:10;102174.53;;;16.72;63.22
28921;BME280;16035;53.594;9.952;2022-07-06T07:26:11;102172.63;;;16.78;63.01
28921;BME280;16035;53.594;9.952;2022-07-06T07:28:11;102180.88;;;16.78;62.81
28921;BME280;16035;53.594;9.952;2022-07-06T07:30:11;102187.47;;;16.77;62.53
28921;BME280;16035;53.594;9.952;2022-07-06T07:32:12;102179.94;;;16.62;62.09
28921;BME280;16035;53.594;9.952;2022-07-06T07:34:12;102181.78;;;16.51;62.33
28921;BME280;16035;53.594;9.952;2022-07-06T07:36:13;102184.28;;;16.48;62.46
28921;BME280;16035;53.594;9.952;2022-07-06T07:38:13;102186.41;;;16.40;62.01
28921;BME280;16035;53.594;9.952;2022-07-06T07:40:13;102191.56;;;16.32;61.79
28921;BME280;16035;53.594;9.952;2022-07-06T07:42:14;102197.00;;;16.22;62.08
28921;BME280;16035;53.594;9.952;2022-07-06T07:44:14;102193.97;;;16.23;62.01
28921;BME280;16035;53.594;9.952;2022-07-06T07:46:17;102190.91;;;16.14;61.84
28921;BME280;16035;53.594;9.952;2022-07-06T07:48:17;102202.66;;;16.10;62.10
28921;BME280;16035;53.594;9.952;2022-07-06T07:50:18;102196.91;;;16.11;62.74
28921;BME280;16035;53.594;9.952;2022-07-06T07:52:21;102200.22;;;16.13;62.68
28921;BME280;16035;53.594;9.952;2022-07-06T07:54:21;102199.63;;;16.11;62.75
28921;BME280;16035;53.594;9.952;2022-07-06T07:56:22;102195.28;;;16.15;63.03
28921;BME280;16035;53.594;9.952;2022-07-06T07:58:22;102196.44;;;16.25;62.89
28921;BME280;16035;53.594;9.952;2022-07-06T08:00:23;102187.19;;;16.31;63.03
28921;BME280;16035;53.594;9.952;2022-07-06T08:02:24;102190.00;;;16.46;62.91
28921;BME280;16035;53.594;9.952;2022-07-06T08:04:24;102189.28;;;16.61;63.07
28921;BME280;16035;53.594;9.952;2022-07-06T08:06:25;102181.97;;;16.77;62.64
28921;BME280;16035;53.594;9.952;2022-07-06T08:08:25;102187.78;;;16.90;62.41
28921;BME280;16035;53.594;9.952;2022-07-06T08:10:26;102190.34;;;17.12;62.21
28921;BME280;16035;53.594;9.952;2022-07-06T08:12:26;102192.06;;;17.34;62.28
28921;BME280;16035;53.594;9.952;2022-07-06T08:14:27;102184.94;;;17.38;60.95
28921;BME280;16035;53.594;9.952;2022-07-06T08:16:27;102197.25;;;17.30;60.86
28921;BME280;16035;53.594;9.952;2022-07-06T08:18:28;102202.16;;;17.13;60.39
28921;BME280;16035;53.594;9.952;2022-07-06T08:20:28;102209.53;;;16.97;60.38
28921;BME280;16035;53.594;9.952;2022-07-06T08:22:29;102209.44;;;16.82;61.06
28921;BME280;16035;53.594;9.952;2022-07-06T08:24:29;102198.66;;;16.70;60.81
28921;BME280;16035;53.594;9.952;2022-07-06T08:26:30;102208.44;;;16.56;60.92
28921;BME280;16035;53.594;9.952;2022-07-06T08:28:30;102215.28;;;16.48;61.82
28921;BME280;16035;53.594;9.952;2022-07-06T08:30:31;102204.84;;;16.50;61.55
28921;BME280;16035;53.594;9.952;2022-07-06T08:32:37;102209.22;;;16.46;61.94
28921;BME280;16035;53.594;9.952;2022-07-06T08:34:38;102212.75;;;16.41;62.18
28921;BME280;16035;53.594;9.952;2022-07-06T08:36:39;102208.13;;;16.47;62.50
28921;BME280;16035;53.594;9.952;2022-07-06T08:38:39;102202.34;;;16.43;61.99
28921;BME280;16035;53.594;9.952;2022-07-06T08:40:40;102197.94;;;16.42;62.59
28921;BME280;16035;53.594;9.952;2022-07-06T08:42:42;102198.53;;;16.50;62.93
28921;BME280;16035;53.594;9.952;2022-07-06T08:44:43;102201.41;;;16.70;63.02
28921;BME280;16035;53.594;9.952;2022-07-06T08:46:44;102202.84;;;16.83;62.96
28921;BME280;16035;53.594;9.952;2022-07-06T08:48:45;102201.31;;;17.07;62.61
28921;BME280;16035;53.594;9.952;2022-07-06T08:50:46;102197.78;;;17.22;62.38
28921;BME280;16035;53.594;9.952;2022-07-06T08:52:47;102201.34;;;17.23;61.49
28921;BME280;16035;53.594;9.952;2022-07-06T08:54:49;102204.38;;;17.16;61.96
28921;BME280;16035;53.594;9.952;2022-07-06T08:56:50;102197.53;;;17.24;62.20
28921;BME280;16035;53.594;9.952;2022-07-06T08:58:50;102196.44;;;17.30;61.91
28921;BME280;16035;53.594;9.952;2022-07-06T09:00:51;102201.38;;;17.28;61.93
28921;BME280;16035;53.594;9.952;2022-07-06T09:02:52;102202.47;;;17.27;61.86
28921;BME280;16035;53.594;9.952;2022-07-06T09:04:57;102204.16;;;17.38;62.52
28921;BME280;16035;53.594;9.952;2022-07-06T09:06:58;102204.22;;;17.68;62.45
28921;BME280;16035;53.594;9.952;2022-07-06T09:08:58;102206.19;;;17.83;61.67
28921;BME280;16035;53.594;9.952;2022-07-06T09:11:00;102203.44;;;17.78;61.49
28921;BME280;16035;53.594;9.952;2022-07-06T09:13:08;102202.03;;;17.81;61.39
28921;BME280;16035;53.594;9.952;2022-07-06T09:15:08;102207.28;;;17.82;60.93
28921;BME280;16035;53.594;9.952;2022-07-06T09:17:09;102203.69;;;17.77;60.45
28921;BME280;16035;53.594;9.952;2022-07-06T09:19:12;102209.16;;;17.72;60.53
28921;BME280;16035;53.594;9.952;2022-07-06T09:21:26;102205.00;;;17.59;60.82
28921;BME280;16035;53.594;9.952;2022-07-06T09:23:26;102209.94;;;17.41;60.64
28921;BME280;16035;53.594;9.952;2022-07-06T09:25:27;102206.06;;;17.32;61.04
28921;BME280;16035;53.594;9.952;2022-07-06T09:27:28;102212.13;;;17.34;61.42
28921;BME280;16035;53.594;9.952;2022-07-06T09:29:31;102214.34;;;17.48;61.55
28921;BME280;16035;53.594;9.952;2022-07-06T09:31:32;102209.69;;;17.63;61.61
28921;BME280;16035;53.594;9.952;2022-07-06T09:33:34;102210.31;;;18.01;61.88
28921;BME280;16035;53.594;9.952;2022-07-06T09:35:38;102211.38;;;18.41;61.36
28921;BME280;16035;53.594;9.952;2022-07-06T09:37:38;102217.34;;;18.89;60.15
28921;BME280;16035;53.594;9.952;2022-07-06T09:39:39;102211.66;;;19.19;59.40
28921;BME280;16035;53.594;9.952;2022-07-06T09:41:40;102211.06;;;19.28;57.34
28921;BME280;16035;53.594;9.952;2022-07-06T09:43:41;102219.66;;;19.21;57.06
28921;BME280;16035;53.594;9.952;2022-07-06T09:45:43;102214.72;;;19.18;55.98
28921;BME280;16035;53.594;9.952;2022-07-06T09:47:47;102216.00;;;19.36;56.11
28921;BME280;16035;53.594;9.952;2022-07-06T09:49:47;102192.31;;;20.08;55.55
28921;BME280;16035;53.594;9.952;2022-07-06T09:51:50;102196.53;;;20.59;54.44
28921;BME280;16035;53.594;9.952;2022-07-06T09:53:51;102195.59;;;20.68;53.56
28921;BME280;16035;53.594;9.952;2022-07-06T09:55:54;102194.22;;;20.66;53.18
28921;BME280;16035;53.594;9.952;2022-07-06T09:57:55;102195.53;;;20.74;53.20
28921;BME280;16035;53.594;9.952;2022-07-06T09:59:55;102191.63;;;20.99;52.86
28921;BME280;16035;53.594;9.952;2022-07-06T10:02:00;102195.66;;;21.49;52.26
28921;BME280;16035;53.594;9.952;2022-07-06T10:04:01;102196.63;;;21.58;50.82
28921;BME280;16035;53.594;9.952;2022-07-06T10:06:02;102189.16;;;21.16;49.15
28921;BME280;16035;53.594;9.952;2022-07-06T10:08:03;102196.63;;;20.49;49.13
28921;BME280;16035;53.594;9.952;2022-07-06T10:10:06;102204.00;;;20.00;50.39
28921;BME280;16035;53.594;9.952;2022-07-06T10:12:09;102211.13;;;19.67;50.64
28921;BME280;16035;53.594;9.952;2022-07-06T10:14:15;102223.72;;;19.34;51.12
28921;BME280;16035;53.594;9.952;2022-07-06T10:16:17;102224.16;;;19.07;51.32
28921;BME280;16035;53.594;9.952;2022-07-06T10:18:17;102223.94;;;18.83;51.87
28921;BME280;16035;53.594;9.952;2022-07-06T10:20:19;102225.91;;;18.62;52.20
28921;BME280;16035;53.594;9.952;2022-07-06T10:22:20;102219.91;;;18.34;52.09
28921;BME280;16035;53.594;9.952;2022-07-06T10:24:21;102218.81;;;18.15;53.03
28921;BME280;16035;53.594;9.952;2022-07-06T10:26:23;102225.16;;;17.95;53.03
28921;BME280;16035;53.594;9.952;2022-07-06T10:28:23;102227.06;;;17.79;53.67
28921;BME280;16035;53.594;9.952;2022-07-06T10:30:24;102227.56;;;17.71;54.27
28921;BME280;16035;53.594;9.952;2022-07-06T10:32:26;102225.09;;;17.69;54.43